Terminal Aerodrome Forecast
Issued by NWS Lake Charles, LA

Home | Current Version | Previous Version | Text Only | Print | Product List | Glossary On
Versions: 1 2 3 4 5 6 7 8 9 10 11 12
000
FTUS44 KLCH 291128
TAFBPT
TAF
KBPT 291128Z 2912/3012 23005KT P6SM FEW017 FEW100
     FM291500 26008KT P6SM SCT025 SCT100
     FM292100 29004KT P6SM VCSH BKN035 OVC250
      TEMPO 2921/2924 5SM -TSRA SCT030CB BKN045
     FM300000 19006KT P6SM VCSH SCT035 BKN070 OVC250
      TEMPO 3000/3004 4SM -TSRA BKN030CB BKN050
     FM300400 24002KT P6SM VCSH SCT040 BKN060 OVC250=

USA.gov is the U.S. government's official web portal to all federal, state and local government web resources and services.